createdAt,value
2023-01-10T00:00:56.517Z,99913.84
2023-01-10T00:05:57.894Z,99923.84
2023-01-10T00:11:19.244Z,99937.88
2023-01-10T00:16:21.278Z,99949.75
2023-01-10T00:21:22.635Z,99959.00
2023-01-10T00:26:23.943Z,99963.44
2023-01-10T00:31:25.327Z,99962.59
2023-01-10T00:36:26.643Z,99961.44
2023-01-10T00:41:46.480Z,99981.06
2023-01-10T00:46:47.877Z,99984.41
2023-01-10T00:51:49.518Z,100007.19
2023-01-10T00:56:50.924Z,100029.63
2023-01-10T01:01:52.760Z,100038.16
2023-01-10T01:06:54.142Z,100065.75
2023-01-10T01:11:56.470Z,100072.28
2023-01-10T01:16:57.875Z,100089.69
2023-01-10T01:21:59.206Z,100115.63
2023-01-10T01:27:00.571Z,100129.84
2023-01-10T01:32:01.890Z,100144.91
2023-01-10T01:37:03.363Z,100155.78
2023-01-10T01:42:06.245Z,100161.44
2023-01-10T01:47:21.837Z,100166.13
2023-01-10T01:52:29.534Z,100172.34
2023-01-10T01:57:32.920Z,100175.34
2023-01-10T02:02:53.998Z,100197.63
2023-01-10T02:08:03.380Z,100194.81
2023-01-10T02:13:08.130Z,100209.69
2023-01-10T02:18:10.043Z,100214.38
2023-01-10T02:23:45.473Z,100227.44
2023-01-10T02:29:18.888Z,100239.03
2023-01-10T02:34:28.984Z,100240.69
2023-01-10T02:39:42.941Z,100250.19
2023-01-10T02:45:14.779Z,100272.66
2023-01-10T02:50:43.040Z,100275.31
2023-01-10T02:56:12.611Z,100271.16
2023-01-10T03:01:47.091Z,100271.97
2023-01-10T03:07:16.530Z,100291.72
2023-01-10T03:12:35.780Z,100296.06
2023-01-10T03:17:40.260Z,100294.06
2023-01-10T03:22:43.137Z,100312.94
2023-01-10T03:27:56.577Z,100320.69
2023-01-10T03:32:59.908Z,100341.59
2023-01-10T03:38:13.765Z,100350.66
2023-01-10T03:43:40.075Z,100352.63
2023-01-10T03:48:44.637Z,100348.47
2023-01-10T03:53:46.139Z,100359.00
2023-01-10T03:58:47.762Z,100372.81
2023-01-10T04:03:50.425Z,100388.00
2023-01-10T04:08:51.886Z,100394.34
2023-01-10T04:13:53.792Z,100404.47
2023-01-10T04:18:55.220Z,100405.25
2023-01-10T04:23:56.530Z,100420.28
2023-01-10T04:28:57.873Z,100424.41
2023-01-10T04:33:59.975Z,100442.31
2023-01-10T04:39:01.324Z,100443.84
2023-01-10T04:44:02.767Z,100445.16
2023-01-10T04:49:04.267Z,100450.34
2023-01-10T04:54:05.653Z,100453.25
2023-01-10T04:59:07.020Z,100466.41
2023-01-10T05:04:08.808Z,100470.75
2023-01-10T05:09:10.323Z,100479.78
2023-01-10T05:14:11.661Z,100488.16
2023-01-10T05:19:13.099Z,100495.63
2023-01-10T05:24:14.431Z,100522.00
2023-01-10T05:29:15.741Z,100518.22
2023-01-10T05:34:17.059Z,100524.41
2023-01-10T05:39:18.499Z,100535.78
2023-01-10T05:44:19.899Z,100540.44
2023-01-10T05:49:21.248Z,100548.78
2023-01-10T05:54:22.731Z,100549.88
2023-01-10T05:59:31.081Z,100555.66
2023-01-10T06:04:32.484Z,100567.03
2023-01-10T06:09:33.837Z,100588.50
2023-01-10T06:14:35.194Z,100601.75
2023-01-10T06:19:36.618Z,100624.06
2023-01-10T06:24:37.949Z,100628.97
2023-01-10T06:29:39.267Z,100643.59
2023-01-10T06:34:40.601Z,100638.50
2023-01-10T06:39:42.016Z,100640.16
2023-01-10T06:44:43.372Z,100629.41
2023-01-10T06:49:44.735Z,100647.44
2023-01-10T06:54:46.123Z,100670.22
2023-01-10T06:59:47.475Z,100679.66
2023-01-10T07:04:49.097Z,100685.81
2023-01-10T07:09:50.832Z,100664.78
2023-01-10T07:14:52.216Z,100681.69
2023-01-10T07:19:53.593Z,100695.81
2023-01-10T07:24:54.972Z,100710.47
2023-01-10T07:29:56.318Z,100727.81
2023-01-10T07:34:57.694Z,100740.06
2023-01-10T07:39:59.001Z,100743.56
2023-01-10T07:45:00.325Z,100735.47
2023-01-10T07:50:01.655Z,100759.41
2023-01-10T07:55:03.141Z,100767.72
2023-01-10T08:00:04.817Z,100787.72
2023-01-10T08:05:06.381Z,100773.06
2023-01-10T08:10:08.391Z,100778.19
2023-01-10T08:15:10.224Z,100761.44
2023-01-10T08:20:11.982Z,100775.66
2023-01-10T08:25:13.304Z,100788.75
2023-01-10T08:30:15.117Z,100795.19
2023-01-10T08:35:16.605Z,100794.94
2023-01-10T08:40:18.066Z,100799.84
2023-01-10T08:45:19.405Z,100799.69
2023-01-10T08:50:21.001Z,100806.75
2023-01-10T08:55:22.334Z,100797.72
2023-01-10T09:00:23.854Z,100795.63
2023-01-10T09:05:28.425Z,100812.22
2023-01-10T09:10:30.350Z,100825.72
2023-01-10T09:15:34.943Z,100833.84
2023-01-10T09:20:38.798Z,100836.09
2023-01-10T09:25:40.105Z,100840.00
2023-01-10T09:30:41.642Z,100839.56
2023-01-10T09:35:43.629Z,100838.38
2023-01-10T09:41:17.304Z,100839.75
2023-01-10T09:46:55.959Z,100860.88
2023-01-10T09:51:59.194Z,100849.97
2023-01-10T09:57:01.955Z,100855.97
2023-01-10T10:02:27.373Z,100876.66
2023-01-10T10:07:28.724Z,100871.44
2023-01-10T10:13:00.631Z,100870.22
2023-01-10T10:18:10.564Z,100868.03
2023-01-10T10:23:27.521Z,100867.97
2023-01-10T10:28:46.586Z,100855.41
2023-01-10T10:34:15.980Z,100855.03
2023-01-10T10:39:40.540Z,100867.81
2023-01-10T10:44:49.220Z,100862.84
2023-01-10T10:50:04.599Z,100864.59
2023-01-10T10:55:07.471Z,100862.06
2023-01-10T11:00:15.430Z,100866.06
2023-01-10T11:05:23.633Z,100859.47
2023-01-10T11:10:38.256Z,100858.69
2023-01-10T11:15:43.415Z,100867.25
2023-01-10T11:21:00.167Z,100871.94
2023-01-10T11:26:02.223Z,100864.75
2023-01-10T11:31:04.021Z,100862.06
2023-01-10T11:36:08.766Z,100861.63
2023-01-10T11:41:19.168Z,100854.81
2023-01-10T11:46:25.637Z,100846.16
2023-01-10T11:51:35.546Z,100841.13
2023-01-10T11:56:39.928Z,100847.81
2023-01-10T12:01:46.893Z,100838.25
2023-01-10T12:06:50.855Z,100830.44
2023-01-10T12:12:01.979Z,100828.34
2023-01-10T12:17:04.028Z,100815.22
2023-01-10T12:22:07.905Z,100825.47
2023-01-10T12:27:12.662Z,100820.13
2023-01-10T12:32:22.446Z,100813.41
2023-01-10T12:37:42.644Z,100811.25
2023-01-10T12:43:19.710Z,100810.13
2023-01-10T12:48:50.369Z,100818.66
2023-01-10T12:53:58.907Z,100827.78
2023-01-10T12:59:04.752Z,100820.69
2023-01-10T13:04:10.697Z,100831.78
2023-01-10T13:09:22.157Z,100828.75
2023-01-10T13:14:47.553Z,100828.75
2023-01-10T13:20:16.958Z,100817.69
2023-01-10T13:25:27.981Z,100830.88
2023-01-10T13:30:40.769Z,100828.91
2023-01-10T13:35:44.161Z,100831.94
2023-01-10T13:41:30.246Z,100821.22
2023-01-10T13:46:31.611Z,100826.72
2023-01-10T13:51:33.077Z,100823.28
2023-01-10T13:56:40.717Z,100816.00
2023-01-10T14:02:01.435Z,100817.69
2023-01-10T14:07:24.543Z,100810.63
2023-01-10T14:12:37.216Z,100798.44
2023-01-10T14:17:40.025Z,100786.38
2023-01-10T14:22:56.595Z,100790.38
2023-01-10T14:27:58.946Z,100772.25
2023-01-10T14:33:19.357Z,100768.91
2023-01-10T14:38:32.531Z,100772.25
2023-01-10T14:43:45.326Z,100767.41
2023-01-10T14:48:51.389Z,100757.47
2023-01-10T14:54:04.730Z,100755.09
2023-01-10T14:59:18.258Z,100738.81
2023-01-10T15:04:22.967Z,100751.66
2023-01-10T15:09:25.236Z,100745.91
2023-01-10T15:14:28.063Z,100742.19
2023-01-10T15:19:32.919Z,100751.53
2023-01-10T15:24:36.387Z,100754.50
2023-01-10T15:29:44.500Z,100748.06
2023-01-10T15:34:49.218Z,100747.22
2023-01-10T15:39:51.159Z,100746.41
2023-01-10T15:44:53.301Z,100742.03
2023-01-10T15:49:54.817Z,100730.94
2023-01-10T15:54:57.005Z,100729.63
2023-01-10T16:00:00.056Z,100723.72
2023-01-10T16:05:13.747Z,100726.47
2023-01-10T16:10:27.726Z,100719.72
2023-01-10T16:15:35.392Z,100719.59
2023-01-10T16:20:39.590Z,100718.06
2023-01-10T16:25:45.600Z,100711.16
2023-01-10T16:30:47.925Z,100706.81
2023-01-10T16:35:54.435Z,100702.19
2023-01-10T16:41:21.252Z,100693.28
2023-01-10T16:46:23.085Z,100682.13
2023-01-10T16:51:26.202Z,100675.41
2023-01-10T16:56:28.910Z,100668.25
2023-01-10T17:01:39.056Z,100674.78
2023-01-10T17:06:41.537Z,100656.16
2023-01-10T17:11:43.045Z,100646.44
2023-01-10T17:16:44.430Z,100643.41
2023-01-10T17:21:45.948Z,100639.72
2023-01-10T17:26:47.354Z,100632.00
2023-01-10T17:31:48.854Z,100609.72
2023-01-10T17:36:50.536Z,100605.19
2023-01-10T17:41:51.947Z,100609.84
2023-01-10T17:46:56.767Z,100605.72
2023-01-10T17:51:58.754Z,100589.78
2023-01-10T17:57:00.220Z,100599.50
2023-01-10T18:02:02.033Z,100596.66
2023-01-10T18:07:03.510Z,100578.75
2023-01-10T18:12:05.484Z,100573.41
2023-01-10T18:17:10.501Z,100583.44
2023-01-10T18:22:31.474Z,100599.19
2023-01-10T18:27:32.866Z,100589.97
2023-01-10T18:32:34.467Z,100592.03
2023-01-10T18:37:35.874Z,100613.47
2023-01-10T18:42:37.673Z,100595.16
2023-01-10T18:47:39.005Z,100581.44
2023-01-10T18:52:40.348Z,100600.53
2023-01-10T18:57:41.909Z,100605.56
2023-01-10T19:02:43.392Z,100605.28
2023-01-10T19:07:44.828Z,100620.63
2023-01-10T19:12:46.217Z,100593.56
2023-01-10T19:17:47.564Z,100605.97
2023-01-10T19:22:48.949Z,100611.97
2023-01-10T19:27:50.326Z,100605.38
2023-01-10T19:32:51.678Z,100600.09
2023-01-10T19:37:53.079Z,100595.88
2023-01-10T19:42:54.667Z,100606.59
2023-01-10T19:47:55.991Z,100601.81
2023-01-10T19:52:57.336Z,100603.94
2023-01-10T19:58:00.070Z,100608.16
2023-01-10T20:03:01.572Z,100593.81
2023-01-10T20:08:04.840Z,100578.66
2023-01-10T20:13:06.931Z,100571.09
2023-01-10T20:18:09.302Z,100557.63
2023-01-10T20:23:12.269Z,100539.38
2023-01-10T20:28:13.673Z,100525.66
2023-01-10T20:33:15.053Z,100522.28
2023-01-10T20:38:16.523Z,100524.81
2023-01-10T20:43:18.125Z,100523.81
2023-01-10T20:48:19.989Z,100528.03
2023-01-10T20:53:21.548Z,100512.25
2023-01-10T20:58:22.906Z,100512.25
2023-01-10T21:03:24.548Z,100499.28
2023-01-10T21:08:26.728Z,100496.59
2023-01-10T21:13:28.095Z,100492.25
2023-01-10T21:18:40.982Z,100486.16
2023-01-10T21:23:42.430Z,100499.38
2023-01-10T21:28:47.230Z,100474.84
2023-01-10T21:33:49.350Z,100472.88
2023-01-10T21:38:50.925Z,100463.00
2023-01-10T21:43:52.279Z,100450.94
2023-01-10T21:48:53.595Z,100461.81
2023-01-10T21:53:54.937Z,100452.78
2023-01-10T21:58:56.349Z,100448.25
2023-01-10T22:03:57.790Z,100455.38
2023-01-10T22:08:59.214Z,100444.56
2023-01-10T22:14:00.646Z,100450.13
2023-01-10T22:19:02.013Z,100445.53
2023-01-10T22:24:03.633Z,100435.53
2023-01-10T22:29:04.975Z,100429.88
2023-01-10T22:34:06.301Z,100427.06
2023-01-10T22:39:08.498Z,100416.91
2023-01-10T22:44:18.218Z,100420.94
2023-01-10T22:49:20.045Z,100409.22
2023-01-10T22:54:21.407Z,100407.56
2023-01-10T22:59:22.724Z,100407.38
2023-01-10T23:04:24.353Z,100412.03
2023-01-10T23:09:25.724Z,100390.66
2023-01-10T23:14:27.120Z,100402.91
2023-01-10T23:19:28.419Z,100395.56
2023-01-10T23:24:29.752Z,100379.03
2023-01-10T23:29:31.065Z,100373.53
2023-01-10T23:34:32.389Z,100374.41
2023-01-10T23:39:33.709Z,100369.09
2023-01-10T23:44:35.056Z,100356.09
2023-01-10T23:49:36.399Z,100353.44
2023-01-10T23:54:37.715Z,100355.63
2023-01-10T23:59:39.079Z,100353.16
